createdAt,value
2022-07-25T00:00:09.804Z,22.21
2022-07-25T00:02:36.560Z,22.16
2022-07-25T00:05:04.041Z,22.05
2022-07-25T00:07:30.516Z,22.13
2022-07-25T00:09:57.014Z,22.05
2022-07-25T00:12:23.532Z,22.06
2022-07-25T00:14:50.085Z,21.93
2022-07-25T00:17:16.533Z,21.92
2022-07-25T00:19:43.090Z,21.98
2022-07-25T00:22:09.531Z,21.96
2022-07-25T00:24:36.003Z,21.93
2022-07-25T00:27:02.857Z,21.85
2022-07-25T00:29:29.613Z,21.86
2022-07-25T00:31:56.101Z,21.90
2022-07-25T00:34:22.548Z,21.94
2022-07-25T00:36:51.930Z,21.91
2022-07-25T00:39:18.397Z,21.83
2022-07-25T00:41:44.894Z,21.80
2022-07-25T00:44:25.161Z,21.73
2022-07-25T00:46:52.364Z,21.75
2022-07-25T00:49:18.978Z,21.76
2022-07-25T00:51:45.630Z,21.86
2022-07-25T00:54:12.144Z,21.88
2022-07-25T00:56:38.869Z,21.92
2022-07-25T00:59:05.379Z,21.90
2022-07-25T01:01:31.891Z,21.90
2022-07-25T01:03:58.407Z,21.88
2022-07-25T01:06:24.910Z,21.89
2022-07-25T01:08:51.409Z,21.78
2022-07-25T01:11:17.867Z,21.95
2022-07-25T01:13:44.395Z,21.95
2022-07-25T01:16:10.963Z,21.97
2022-07-25T01:18:38.388Z,22.00
2022-07-25T01:21:05.308Z,21.83
2022-07-25T01:23:31.816Z,21.75
2022-07-25T01:25:58.253Z,21.89
2022-07-25T01:28:24.713Z,21.95
2022-07-25T01:30:51.268Z,21.90
2022-07-25T01:33:18.598Z,21.76
2022-07-25T01:35:45.387Z,21.81
2022-07-25T01:38:12.343Z,21.82
2022-07-25T01:40:39.424Z,21.81
2022-07-25T01:43:05.949Z,21.94
2022-07-25T01:45:32.516Z,22.00
2022-07-25T01:47:59.100Z,22.06
2022-07-25T01:50:25.602Z,22.12
2022-07-25T01:52:52.177Z,22.09
2022-07-25T01:55:18.698Z,22.03
2022-07-25T01:57:50.046Z,21.93
2022-07-25T02:00:16.951Z,21.95
2022-07-25T02:02:43.729Z,21.90
2022-07-25T02:05:11.538Z,21.92
2022-07-25T02:07:38.082Z,21.98
2022-07-25T02:10:05.842Z,21.95
2022-07-25T02:12:32.281Z,21.84
2022-07-25T02:14:58.738Z,21.82
2022-07-25T02:17:25.296Z,21.85
2022-07-25T02:19:51.877Z,21.88
2022-07-25T02:22:18.323Z,21.87
2022-07-25T02:24:44.819Z,21.83
2022-07-25T02:27:11.426Z,21.73
2022-07-25T02:29:37.914Z,21.72
2022-07-25T02:32:04.820Z,21.69
2022-07-25T02:34:31.269Z,21.72
2022-07-25T02:36:57.753Z,21.63
2022-07-25T02:39:25.334Z,21.62
2022-07-25T02:41:51.832Z,21.63
2022-07-25T02:44:18.253Z,21.58
2022-07-25T02:46:44.806Z,21.62
2022-07-25T02:49:11.750Z,21.59
2022-07-25T02:51:38.256Z,21.58
2022-07-25T02:54:04.750Z,21.50
2022-07-25T02:56:33.153Z,21.46
2022-07-25T02:58:59.649Z,21.56
2022-07-25T03:01:26.302Z,21.52
2022-07-25T03:03:52.909Z,21.49
2022-07-25T03:06:19.427Z,21.53
2022-07-25T03:08:45.855Z,21.56
2022-07-25T03:11:13.245Z,21.54
2022-07-25T03:13:39.740Z,21.56
2022-07-25T03:16:06.585Z,21.57
2022-07-25T03:18:33.021Z,21.56
2022-07-25T03:20:59.514Z,21.65
2022-07-25T03:23:27.275Z,21.59
2022-07-25T03:25:54.725Z,21.52
2022-07-25T03:28:21.247Z,21.47
2022-07-25T03:30:47.681Z,21.37
2022-07-25T03:33:14.117Z,21.36
2022-07-25T03:35:41.740Z,21.41
2022-07-25T03:38:08.261Z,21.39
2022-07-25T03:40:35.350Z,21.27
2022-07-25T03:43:02.113Z,21.27
2022-07-25T03:45:28.999Z,21.16
2022-07-25T03:47:55.465Z,21.19
2022-07-25T03:50:21.929Z,21.14
2022-07-25T03:52:48.370Z,21.23
2022-07-25T03:55:14.810Z,21.15
2022-07-25T03:57:41.250Z,21.18
2022-07-25T04:00:09.322Z,21.08
2022-07-25T04:02:37.637Z,21.13
2022-07-25T04:05:05.930Z,21.04
2022-07-25T04:07:32.398Z,21.06
2022-07-25T04:09:59.145Z,20.95
2022-07-25T04:12:25.655Z,21.02
2022-07-25T04:14:52.120Z,21.06
2022-07-25T04:17:18.565Z,21.10
2022-07-25T04:19:46.915Z,21.14
2022-07-25T04:22:13.386Z,21.11
2022-07-25T04:24:39.895Z,21.11
2022-07-25T04:27:06.356Z,21.13
2022-07-25T04:29:32.808Z,21.12
2022-07-25T04:31:59.287Z,21.11
2022-07-25T04:34:26.209Z,21.07
2022-07-25T04:36:52.680Z,21.04
2022-07-25T04:39:19.112Z,21.14
2022-07-25T04:41:45.611Z,21.09
2022-07-25T04:44:12.092Z,21.11
2022-07-25T04:46:38.548Z,21.18
2022-07-25T04:49:05.098Z,21.18
2022-07-25T04:51:31.664Z,21.28
2022-07-25T04:53:58.154Z,21.39
2022-07-25T04:56:24.602Z,21.44
2022-07-25T04:58:51.076Z,21.49
2022-07-25T05:01:17.627Z,21.63
2022-07-25T05:03:50.492Z,21.74
2022-07-25T05:06:18.774Z,21.78
2022-07-25T05:08:45.365Z,21.82
2022-07-25T05:11:11.884Z,21.95
2022-07-25T05:13:38.349Z,21.95
2022-07-25T05:16:05.248Z,22.00
2022-07-25T05:18:34.019Z,21.94
2022-07-25T05:21:00.469Z,21.98
2022-07-25T05:23:27.091Z,22.08
2022-07-25T05:25:53.541Z,22.08
2022-07-25T05:28:20.027Z,22.12
2022-07-25T05:30:46.494Z,22.16
2022-07-25T05:33:12.946Z,22.16
2022-07-25T05:35:39.609Z,22.18
2022-07-25T05:38:06.530Z,22.26
2022-07-25T05:40:33.008Z,22.41
2022-07-25T05:43:02.902Z,22.48
2022-07-25T05:45:30.160Z,22.55
2022-07-25T05:47:56.622Z,22.54
2022-07-25T05:50:23.184Z,22.53
2022-07-25T05:52:49.610Z,22.53
2022-07-25T05:55:17.023Z,22.54
2022-07-25T05:57:43.468Z,22.62
2022-07-25T06:00:10.577Z,22.68
2022-07-25T06:02:37.169Z,22.73
2022-07-25T06:05:03.786Z,22.71
2022-07-25T06:07:30.216Z,22.77
2022-07-25T06:09:56.706Z,22.76
2022-07-25T06:12:24.338Z,22.71
2022-07-25T06:14:51.040Z,22.70
2022-07-25T06:17:17.498Z,22.81
2022-07-25T06:19:43.941Z,22.83
2022-07-25T06:22:11.295Z,22.90
2022-07-25T06:24:38.189Z,23.03
2022-07-25T06:27:04.619Z,23.10
2022-07-25T06:29:31.065Z,23.16
2022-07-25T06:31:57.608Z,23.13
2022-07-25T06:34:28.526Z,23.26
2022-07-25T06:36:55.364Z,23.27
2022-07-25T06:39:21.820Z,23.25
2022-07-25T06:41:48.324Z,23.46
2022-07-25T06:44:14.850Z,23.77
2022-07-25T06:46:41.439Z,23.88
2022-07-25T06:49:08.122Z,24.01
2022-07-25T06:51:34.708Z,24.00
2022-07-25T06:54:01.137Z,24.10
2022-07-25T06:56:31.396Z,24.08
2022-07-25T06:58:58.532Z,24.09
2022-07-25T07:01:25.085Z,24.14
2022-07-25T07:03:51.838Z,24.22
2022-07-25T07:06:18.385Z,24.36
2022-07-25T07:08:44.836Z,24.52
2022-07-25T07:11:15.199Z,24.51
2022-07-25T07:13:41.714Z,24.56
2022-07-25T07:16:08.418Z,24.72
2022-07-25T07:18:34.976Z,24.87
2022-07-25T07:21:01.435Z,24.94
2022-07-25T07:23:29.125Z,25.11
2022-07-25T07:25:55.883Z,25.34
2022-07-25T07:28:22.372Z,25.50
2022-07-25T07:33:35.355Z,25.74
2022-07-25T07:36:02.117Z,26.10
2022-07-25T07:38:28.627Z,26.43
2022-07-25T07:40:55.107Z,26.62
2022-07-25T07:43:25.058Z,26.73
2022-07-25T07:45:56.679Z,26.82
2022-07-25T07:48:23.345Z,26.82
2022-07-25T07:50:49.813Z,26.83
2022-07-25T07:53:16.251Z,27.07
2022-07-25T07:55:45.859Z,27.11
2022-07-25T07:58:15.923Z,27.30
2022-07-25T08:00:43.167Z,27.42
2022-07-25T08:03:09.701Z,27.55
2022-07-25T08:05:40.752Z,27.68
2022-07-25T08:08:08.747Z,27.87
2022-07-25T08:10:37.390Z,27.87
2022-07-25T08:13:21.089Z,28.06
2022-07-25T08:15:49.164Z,28.18
2022-07-25T08:18:16.933Z,28.37
2022-07-25T08:20:45.305Z,28.43
2022-07-25T08:23:11.772Z,28.45
2022-07-25T08:25:38.607Z,28.54
2022-07-25T08:28:06.359Z,28.55
2022-07-25T08:30:33.570Z,28.56
2022-07-25T08:33:03.406Z,28.59
2022-07-25T08:35:30.288Z,29.00
2022-07-25T08:37:57.227Z,29.27
2022-07-25T08:40:25.428Z,29.52
2022-07-25T08:42:52.035Z,29.63
2022-07-25T08:45:19.582Z,29.73
2022-07-25T08:47:50.185Z,29.97
2022-07-25T08:50:18.715Z,30.09
2022-07-25T08:52:47.483Z,30.07
2022-07-25T08:55:19.961Z,30.15
2022-07-25T08:57:51.339Z,30.05
2022-07-25T09:00:22.563Z,30.16
2022-07-25T09:02:54.807Z,30.12
2022-07-25T09:05:22.457Z,30.02
2022-07-25T09:07:49.426Z,30.08
2022-07-25T09:10:18.241Z,30.04
2022-07-25T09:12:57.786Z,30.12
2022-07-25T09:15:27.653Z,30.16
2022-07-25T09:18:00.170Z,30.09
2022-07-25T09:20:49.295Z,30.12
2022-07-25T09:23:38.530Z,30.13
2022-07-25T09:26:09.200Z,30.23
2022-07-25T09:28:42.518Z,30.33
2022-07-25T09:31:09.777Z,30.39
2022-07-25T09:33:59.020Z,30.43
2022-07-25T09:36:25.524Z,30.56
2022-07-25T09:38:55.556Z,30.58
2022-07-25T09:41:22.021Z,30.58
2022-07-25T09:43:48.471Z,30.62
2022-07-25T09:46:15.028Z,30.62
2022-07-25T09:48:44.499Z,30.62
2022-07-25T09:51:10.973Z,30.82
2022-07-25T09:53:37.432Z,30.88
2022-07-25T09:56:04.021Z,30.90
2022-07-25T09:58:30.539Z,30.87
2022-07-25T10:01:06.595Z,31.19
2022-07-25T10:03:48.307Z,31.30
2022-07-25T10:06:36.550Z,31.39
2022-07-25T10:09:03.155Z,31.43
2022-07-25T10:11:32.550Z,31.48
2022-07-25T10:14:10.018Z,31.46
2022-07-25T10:16:45.291Z,31.54
2022-07-25T10:19:11.765Z,31.63
2022-07-25T10:21:38.251Z,31.56
2022-07-25T10:24:06.784Z,31.70
2022-07-25T10:26:35.056Z,31.80
2022-07-25T10:29:02.511Z,31.84
2022-07-25T10:31:31.953Z,31.79
2022-07-25T10:34:00.014Z,31.83
2022-07-25T10:36:33.571Z,31.81
2022-07-25T10:39:00.979Z,31.80
2022-07-25T10:41:28.661Z,31.69
2022-07-25T10:44:00.876Z,31.69
2022-07-25T10:46:30.618Z,31.82
2022-07-25T10:49:05.003Z,32.09
2022-07-25T10:51:37.014Z,32.21
2022-07-25T10:54:13.328Z,32.22
2022-07-25T10:56:51.068Z,32.35
2022-07-25T10:59:26.069Z,32.31
2022-07-25T11:01:52.540Z,32.31
2022-07-25T11:04:19.024Z,32.51
2022-07-25T11:06:45.478Z,32.66
2022-07-25T11:09:26.535Z,33.05
2022-07-25T11:11:55.619Z,33.37
2022-07-25T11:14:26.910Z,33.42
2022-07-25T11:16:55.102Z,33.36
2022-07-25T11:19:26.378Z,33.11
2022-07-25T11:21:55.645Z,33.08
2022-07-25T11:24:22.969Z,33.36
2022-07-25T11:26:51.102Z,33.96
2022-07-25T11:29:24.514Z,34.35
2022-07-25T11:31:53.107Z,34.44
2022-07-25T11:34:23.840Z,34.61
2022-07-25T11:36:51.747Z,34.87
2022-07-25T11:39:18.980Z,34.34
2022-07-25T11:41:45.662Z,34.12
2022-07-25T11:44:12.210Z,34.04
2022-07-25T11:46:44.062Z,34.45
2022-07-25T11:49:11.223Z,35.08
2022-07-25T11:51:38.707Z,35.34
2022-07-25T11:54:11.287Z,35.92
2022-07-25T11:56:43.367Z,36.30
2022-07-25T11:59:10.833Z,36.80
2022-07-25T12:01:41.667Z,36.95
2022-07-25T12:04:11.805Z,37.21
2022-07-25T12:06:39.326Z,37.29
2022-07-25T12:09:21.671Z,36.85
2022-07-25T12:11:48.823Z,36.38
2022-07-25T12:14:15.386Z,36.56
2022-07-25T12:16:42.251Z,36.69
2022-07-25T12:19:10.629Z,36.99
2022-07-25T12:21:37.521Z,37.07
2022-07-25T12:24:04.379Z,36.59
2022-07-25T12:26:30.866Z,36.50
2022-07-25T12:28:57.352Z,36.04
2022-07-25T12:31:28.475Z,35.58
2022-07-25T12:33:55.596Z,35.42
2022-07-25T12:36:22.149Z,35.60
2022-07-25T12:38:48.587Z,35.55
2022-07-25T12:41:17.924Z,35.85
2022-07-25T12:43:44.733Z,36.61
2022-07-25T12:46:11.228Z,36.65
2022-07-25T12:48:37.760Z,36.19
2022-07-25T12:51:04.240Z,35.91
2022-07-25T12:53:30.912Z,35.52
2022-07-25T12:55:57.363Z,35.22
2022-07-25T12:58:23.832Z,35.07
2022-07-25T13:00:50.423Z,34.79
2022-07-25T13:03:17.909Z,34.69
2022-07-25T13:05:44.412Z,34.63
2022-07-25T13:08:10.873Z,34.58
2022-07-25T13:10:37.366Z,34.32
2022-07-25T13:13:03.877Z,34.25
2022-07-25T13:15:30.426Z,34.09
2022-07-25T13:17:57.111Z,33.85
2022-07-25T13:20:23.623Z,33.86
2022-07-25T13:22:50.111Z,33.64
2022-07-25T13:25:16.735Z,33.62
2022-07-25T13:27:43.178Z,33.41
2022-07-25T13:30:10.148Z,33.27
2022-07-25T13:32:36.705Z,33.17
2022-07-25T13:35:03.377Z,33.15
2022-07-25T13:37:29.950Z,33.10
2022-07-25T13:39:56.457Z,33.00
2022-07-25T13:42:22.922Z,32.88
2022-07-25T13:44:49.458Z,32.77
2022-07-25T13:47:15.929Z,32.75
2022-07-25T13:49:42.446Z,32.70
2022-07-25T13:52:08.903Z,32.66
2022-07-25T13:54:35.417Z,32.61
2022-07-25T13:57:02.532Z,32.55
2022-07-25T13:59:29.041Z,32.48
2022-07-25T14:01:55.561Z,32.41
2022-07-25T14:04:22.080Z,32.36
2022-07-25T14:06:52.003Z,32.31
2022-07-25T14:09:20.086Z,32.07
2022-07-25T14:11:46.680Z,31.88
2022-07-25T14:14:13.149Z,31.84
2022-07-25T14:16:39.658Z,31.78
2022-07-25T14:19:06.416Z,31.80
2022-07-25T14:21:33.792Z,31.79
2022-07-25T14:24:00.254Z,31.95
2022-07-25T14:26:28.223Z,32.25
2022-07-25T14:28:56.463Z,32.54
2022-07-25T14:31:23.634Z,32.58
2022-07-25T14:33:50.134Z,32.55
2022-07-25T14:36:16.684Z,32.44
2022-07-25T14:38:47.177Z,32.60
2022-07-25T14:41:14.090Z,32.56
2022-07-25T14:43:41.225Z,32.62
2022-07-25T14:46:08.312Z,32.53
2022-07-25T14:48:38.213Z,32.47
2022-07-25T14:51:05.065Z,32.48
2022-07-25T14:53:32.405Z,32.48
2022-07-25T14:55:59.024Z,32.49
2022-07-25T14:58:25.460Z,32.61
2022-07-25T15:00:52.174Z,32.99
2022-07-25T15:03:18.891Z,32.99
2022-07-25T15:05:45.649Z,32.76
2022-07-25T15:08:14.206Z,32.91
2022-07-25T15:10:40.969Z,33.28
2022-07-25T15:13:29.887Z,33.54
2022-07-25T15:15:53.923Z,33.96
2022-07-25T15:18:20.472Z,34.53
2022-07-25T15:20:48.538Z,35.01
2022-07-25T15:23:15.131Z,35.31
2022-07-25T15:28:28.836Z,35.57
2022-07-25T15:30:55.375Z,35.75
2022-07-25T15:33:22.107Z,35.03
2022-07-25T15:35:48.637Z,34.55
2022-07-25T15:38:15.675Z,34.34
2022-07-25T15:40:43.204Z,34.07
2022-07-25T15:43:09.727Z,35.32
2022-07-25T15:45:40.269Z,36.06
2022-07-25T15:48:10.051Z,34.72
2022-07-25T15:50:38.038Z,34.61
2022-07-25T15:53:04.732Z,35.65
2022-07-25T15:55:31.741Z,36.62
2022-07-25T15:57:58.388Z,35.45
2022-07-25T16:00:29.421Z,34.91
2022-07-25T16:02:56.367Z,34.68
2022-07-25T16:05:22.987Z,35.44
2022-07-25T16:07:49.442Z,36.06
2022-07-25T16:10:15.977Z,34.42
2022-07-25T16:12:42.450Z,33.58
2022-07-25T16:15:09.311Z,32.93
2022-07-25T16:17:36.450Z,32.49
2022-07-25T16:20:04.535Z,32.17
2022-07-25T16:22:30.988Z,32.05
2022-07-25T16:24:57.430Z,31.71
2022-07-25T16:27:23.884Z,31.69
2022-07-25T16:29:52.480Z,31.64
2022-07-25T16:32:19.218Z,31.57
2022-07-25T16:34:47.250Z,31.45
2022-07-25T16:37:13.828Z,31.27
2022-07-25T16:39:40.522Z,31.02
2022-07-25T16:42:07.215Z,30.31
2022-07-25T16:44:33.688Z,29.53
2022-07-25T16:47:00.167Z,28.97
2022-07-25T16:49:26.835Z,28.50
2022-07-25T16:51:53.401Z,27.68
2022-07-25T16:54:22.531Z,27.22
2022-07-25T16:56:53.038Z,27.30
2022-07-25T16:59:20.681Z,27.28
2022-07-25T17:01:47.193Z,27.38
2022-07-25T17:04:13.804Z,27.58
2022-07-25T17:06:41.658Z,27.59
2022-07-25T17:09:08.935Z,27.48
2022-07-25T17:11:36.011Z,27.37
2022-07-25T17:14:04.309Z,27.40
2022-07-25T17:16:31.658Z,27.39
2022-07-25T17:18:58.222Z,27.31
2022-07-25T17:21:24.817Z,27.30
2022-07-25T17:23:53.135Z,27.32
2022-07-25T17:26:20.792Z,27.35
2022-07-25T17:28:47.263Z,27.41
2022-07-25T17:31:14.271Z,27.40
2022-07-25T17:33:40.884Z,27.03
2022-07-25T17:36:07.606Z,26.86
2022-07-25T17:38:35.285Z,26.73
2022-07-25T17:41:02.366Z,26.63
2022-07-25T17:43:29.043Z,26.52
2022-07-25T17:45:56.018Z,26.40
2022-07-25T17:48:22.500Z,26.38
2022-07-25T17:50:48.957Z,26.37
2022-07-25T17:53:17.965Z,26.34
2022-07-25T17:55:44.847Z,26.24
2022-07-25T17:58:11.419Z,26.05
2022-07-25T18:00:37.946Z,26.01
2022-07-25T18:03:04.535Z,26.02
2022-07-25T18:05:31.238Z,26.05
2022-07-25T18:07:57.842Z,26.12
2022-07-25T18:10:24.350Z,26.06
2022-07-25T18:12:50.846Z,25.87
2022-07-25T18:15:17.425Z,25.79
2022-07-25T18:17:44.608Z,25.67
2022-07-25T18:20:11.796Z,25.53
2022-07-25T18:22:38.303Z,25.60
2022-07-25T18:25:06.000Z,25.45
2022-07-25T18:27:32.547Z,25.42
2022-07-25T18:29:59.067Z,25.44
2022-07-25T18:32:25.494Z,25.37
2022-07-25T18:34:52.004Z,25.07
2022-07-25T18:37:19.073Z,24.68
2022-07-25T18:39:45.718Z,24.36
2022-07-25T18:42:12.198Z,24.19
2022-07-25T18:44:38.678Z,24.19
2022-07-25T18:47:06.925Z,24.14
2022-07-25T18:49:33.380Z,24.08
2022-07-25T18:51:59.823Z,24.06
2022-07-25T18:54:26.867Z,24.14
2022-07-25T18:56:53.295Z,24.02
2022-07-25T18:59:19.769Z,24.02
2022-07-25T19:01:46.260Z,24.06
2022-07-25T19:04:12.800Z,23.89
2022-07-25T19:06:39.298Z,23.86
2022-07-25T19:09:05.841Z,23.98
2022-07-25T19:11:33.298Z,23.93
2022-07-25T19:13:59.793Z,23.91
2022-07-25T19:16:26.553Z,23.95
2022-07-25T19:18:53.189Z,23.88
2022-07-25T19:21:19.800Z,23.85
2022-07-25T19:23:50.747Z,23.68
2022-07-25T19:26:18.680Z,23.66
2022-07-25T19:28:45.169Z,23.61
2022-07-25T19:31:13.669Z,23.61
2022-07-25T19:33:41.097Z,23.60
2022-07-25T19:36:07.955Z,23.50
2022-07-25T19:38:34.429Z,23.59
2022-07-25T19:41:01.838Z,23.65
2022-07-25T19:43:28.299Z,23.62
2022-07-25T19:45:54.824Z,23.62
2022-07-25T19:48:24.363Z,23.54
2022-07-25T19:50:51.591Z,23.63
2022-07-25T19:53:18.116Z,23.65
2022-07-25T19:55:44.594Z,23.63
2022-07-25T19:58:11.126Z,23.61
2022-07-25T20:00:38.127Z,23.58
2022-07-25T20:03:05.286Z,23.46
2022-07-25T20:05:32.398Z,23.49
2022-07-25T20:07:58.865Z,23.50
2022-07-25T20:10:25.301Z,23.46
2022-07-25T20:12:51.786Z,23.41
2022-07-25T20:15:18.246Z,23.39
2022-07-25T20:17:44.697Z,23.45
2022-07-25T20:20:11.535Z,23.50
2022-07-25T20:22:38.042Z,23.49
2022-07-25T20:25:08.370Z,23.60
2022-07-25T20:27:35.267Z,23.47
2022-07-25T20:30:03.750Z,23.48
2022-07-25T20:32:30.444Z,23.48
2022-07-25T20:34:57.166Z,23.43
2022-07-25T20:37:23.866Z,23.39
2022-07-25T20:39:51.795Z,23.40
2022-07-25T20:42:18.680Z,23.37
2022-07-25T20:44:45.185Z,23.29
2022-07-25T20:47:14.677Z,23.33
2022-07-25T20:49:41.146Z,23.41
2022-07-25T20:52:08.279Z,23.27
2022-07-25T20:54:35.550Z,23.31
2022-07-25T20:57:02.797Z,23.29
2022-07-25T20:59:29.322Z,23.24
2022-07-25T21:01:55.837Z,23.22
2022-07-25T21:04:22.410Z,23.22
2022-07-25T21:06:48.869Z,23.15
2022-07-25T21:09:15.540Z,23.12
2022-07-25T21:11:41.967Z,23.15
2022-07-25T21:14:08.937Z,23.20
2022-07-25T21:16:35.778Z,23.12
2022-07-25T21:19:02.325Z,23.14
2022-07-25T21:21:28.804Z,23.07
2022-07-25T21:23:55.281Z,23.01
2022-07-25T21:26:21.781Z,23.02
2022-07-25T21:28:48.259Z,23.01
2022-07-25T21:31:14.750Z,22.96
2022-07-25T21:33:42.188Z,22.98
2022-07-25T21:36:09.077Z,22.84
2022-07-25T21:38:37.018Z,22.79
2022-07-25T21:41:03.568Z,22.82
2022-07-25T21:43:30.097Z,22.75
2022-07-25T21:45:56.610Z,22.69
2022-07-25T21:48:43.448Z,22.72
2022-07-25T21:51:18.783Z,22.65
2022-07-25T21:53:49.465Z,22.73
2022-07-25T21:56:16.104Z,22.67
2022-07-25T21:58:42.661Z,22.65
2022-07-25T22:01:09.206Z,22.64
2022-07-25T22:03:35.744Z,22.54
2022-07-25T22:06:02.318Z,22.58
2022-07-25T22:08:28.777Z,22.49
2022-07-25T22:10:55.424Z,22.34
2022-07-25T22:13:21.945Z,22.25
2022-07-25T22:15:48.393Z,22.18
2022-07-25T22:18:14.839Z,22.22
2022-07-25T22:20:42.283Z,22.19
2022-07-25T22:23:08.685Z,22.06
2022-07-25T22:25:35.071Z,22.18
2022-07-25T22:28:01.466Z,22.17
2022-07-25T22:30:27.856Z,22.03
2022-07-25T22:32:54.281Z,22.02
2022-07-25T22:35:20.675Z,22.04
2022-07-25T22:37:47.065Z,21.97
2022-07-25T22:40:13.602Z,22.03
2022-07-25T22:42:40.149Z,21.95
2022-07-25T22:45:07.775Z,21.93
2022-07-25T22:47:34.209Z,21.89
2022-07-25T22:50:00.671Z,21.93
2022-07-25T22:52:27.064Z,21.88
2022-07-25T22:54:53.462Z,21.87
2022-07-25T22:57:19.843Z,21.82
2022-07-25T22:59:49.224Z,21.71
2022-07-25T23:02:15.808Z,21.67
2022-07-25T23:04:42.256Z,21.51
2022-07-25T23:07:08.672Z,21.46
2022-07-25T23:09:36.844Z,21.52
2022-07-25T23:12:04.458Z,21.48
2022-07-25T23:14:30.920Z,21.53
2022-07-25T23:17:16.007Z,21.52
2022-07-25T23:19:42.844Z,21.53
2022-07-25T23:22:09.243Z,21.52
2022-07-25T23:24:37.954Z,21.46
2022-07-25T23:27:04.767Z,21.47
2022-07-25T23:29:31.149Z,21.38
2022-07-25T23:31:57.573Z,21.42
2022-07-25T23:34:24.017Z,21.38
2022-07-25T23:36:50.411Z,21.25
2022-07-25T23:39:16.811Z,21.27
2022-07-25T23:41:43.205Z,21.18
2022-07-25T23:44:11.002Z,21.28
2022-07-25T23:46:38.536Z,21.26
2022-07-25T23:49:06.325Z,21.19
2022-07-25T23:51:32.989Z,21.19
2022-07-25T23:53:59.546Z,21.08
2022-07-25T23:56:26.023Z,21.07
2022-07-25T23:58:52.527Z,21.02
